Terminal Aerodrome Forecast
Issued by NWS Wilmington, NC

Home | Current Version | Previous Version | Text Only | Print | Product List | Glossary On
Versions: 1 2 3 4 5 6 7 8 9 10 11 12 13 14 15 16
000
FTUS42 KILM 311133
TAFILM
TAF
KILM 311133Z 3112/0112 VRB05KT P6SM VCSH SCT020 SCT060 BKN100
     FM311800 15006KT 6SM -SHRA VCTS BKN040CB
      TEMPO 3119/3123 3SM TSRA SCT010 BKN020CB
     FM312300 21005KT P6SM -SHRA FEW020 SCT050 BKN100
     FM010200 20003KT 6SM BR SCT040 BKN150=

USA.gov is the U.S. government's official web portal to all federal, state and local government web resources and services.